createdAt,value
2023-03-29T00:00:13.451Z,182.49
2023-03-29T00:01:34.779Z,182.57
2023-03-29T00:02:14.446Z,182.61
2023-03-29T00:03:13.550Z,178.01
2023-03-29T00:04:13.594Z,182.30
2023-03-29T00:05:13.408Z,181.51
2023-03-29T00:06:13.416Z,186.54
2023-03-29T00:07:13.405Z,184.41
2023-03-29T00:08:13.386Z,182.59
2023-03-29T00:09:13.394Z,181.81
2023-03-29T00:10:13.407Z,181.66
2023-03-29T00:11:13.390Z,180.46
2023-03-29T00:12:13.370Z,180.07
2023-03-29T00:13:13.385Z,172.85
2023-03-29T00:14:13.362Z,176.74
2023-03-29T00:15:13.354Z,180.20
2023-03-29T00:16:13.340Z,184.50
2023-03-29T00:17:13.472Z,183.60
2023-03-29T00:18:13.348Z,175.11
2023-03-29T00:19:13.342Z,181.56
2023-03-29T00:20:13.338Z,177.34
2023-03-29T00:21:13.328Z,177.80
2023-03-29T00:22:13.316Z,176.51
2023-03-29T00:23:13.368Z,184.05
2023-03-29T00:24:13.479Z,183.71
2023-03-29T00:25:13.487Z,177.62
2023-03-29T00:26:13.500Z,176.45
2023-03-29T00:27:13.508Z,181.84
2023-03-29T00:28:13.523Z,177.79
2023-03-29T00:29:13.506Z,177.21
2023-03-29T00:30:13.631Z,180.79
2023-03-29T00:31:13.760Z,181.59
2023-03-29T00:32:13.715Z,177.25
2023-03-29T00:33:13.669Z,177.17
2023-03-29T00:34:13.684Z,176.95
2023-03-29T00:35:13.704Z,175.67
2023-03-29T00:36:13.707Z,173.00
2023-03-29T00:37:13.713Z,172.08
2023-03-29T00:38:13.742Z,167.68
2023-03-29T00:39:13.723Z,175.03
2023-03-29T00:40:13.846Z,174.07
2023-03-29T00:41:13.857Z,172.63
2023-03-29T00:42:13.867Z,175.94
2023-03-29T00:43:13.860Z,175.64
2023-03-29T00:44:13.877Z,174.22
2023-03-29T00:45:13.893Z,180.06
2023-03-29T00:46:13.944Z,175.48
2023-03-29T00:47:13.931Z,167.85
2023-03-29T00:48:13.973Z,173.49
2023-03-29T00:49:13.970Z,168.92
2023-03-29T00:50:13.945Z,168.21
2023-03-29T00:51:13.977Z,173.36
2023-03-29T00:52:14.014Z,175.26
2023-03-29T00:53:14.013Z,173.34
2023-03-29T00:54:14.024Z,172.09
2023-03-29T00:55:14.020Z,171.98
2023-03-29T00:56:14.098Z,170.31
2023-03-29T00:57:14.116Z,174.26
2023-03-29T00:58:14.090Z,176.94
2023-03-29T00:59:14.101Z,176.62
2023-03-29T01:00:14.200Z,181.84
2023-03-29T01:01:14.297Z,177.02
2023-03-29T01:02:14.402Z,176.91
2023-03-29T01:03:14.467Z,173.07
2023-03-29T01:04:14.275Z,178.75
2023-03-29T01:05:14.317Z,177.68
2023-03-29T01:06:14.337Z,177.16
2023-03-29T01:07:14.425Z,176.50
2023-03-29T01:08:14.366Z,173.38
2023-03-29T01:09:14.371Z,175.81
2023-03-29T01:10:14.471Z,175.72
2023-03-29T01:11:14.466Z,178.81
2023-03-29T01:12:14.484Z,176.85
2023-03-29T01:13:14.472Z,177.76
2023-03-29T01:14:14.495Z,177.65
2023-03-29T01:15:14.511Z,181.22
2023-03-29T01:16:14.620Z,180.30
2023-03-29T01:17:14.624Z,179.84
2023-03-29T01:18:14.635Z,181.71
2023-03-29T01:19:14.628Z,173.49
2023-03-29T01:20:14.655Z,180.45
2023-03-29T01:21:14.680Z,183.16
2023-03-29T01:22:14.673Z,184.57
2023-03-29T01:23:14.694Z,180.49
2023-03-29T01:24:14.701Z,184.32
2023-03-29T01:25:14.707Z,178.71
2023-03-29T01:26:14.734Z,178.99
2023-03-29T01:27:14.792Z,179.83
2023-03-29T01:28:14.789Z,172.79
2023-03-29T01:29:14.795Z,178.70
2023-03-29T01:30:14.891Z,181.04
2023-03-29T01:31:14.848Z,179.87
2023-03-29T01:32:14.854Z,180.84
2023-03-29T01:33:14.866Z,179.42
2023-03-29T01:34:14.863Z,182.03
2023-03-29T01:35:14.901Z,178.77
2023-03-29T01:36:14.934Z,173.72
2023-03-29T01:37:14.924Z,175.51
2023-03-29T01:38:14.958Z,179.99
2023-03-29T01:39:14.967Z,169.23
2023-03-29T01:40:14.975Z,172.88
2023-03-29T01:41:14.985Z,176.24
2023-03-29T01:42:14.990Z,176.02
2023-03-29T01:43:15.046Z,174.38
2023-03-29T01:44:14.996Z,174.36
2023-03-29T01:45:15.003Z,172.46
2023-03-29T01:46:15.126Z,171.02
2023-03-29T01:47:15.137Z,172.64
2023-03-29T01:48:15.170Z,169.93
2023-03-29T01:49:15.156Z,170.90
2023-03-29T01:50:15.135Z,167.51
2023-03-29T01:51:15.149Z,171.72
2023-03-29T01:52:15.273Z,168.16
2023-03-29T01:53:15.275Z,168.26
2023-03-29T01:54:15.282Z,169.88
2023-03-29T01:55:15.273Z,172.47
2023-03-29T01:56:15.307Z,173.22
2023-03-29T01:57:15.407Z,172.01
2023-03-29T01:58:15.334Z,169.66
2023-03-29T01:59:15.335Z,160.43
2023-03-29T02:00:15.378Z,162.87
2023-03-29T02:01:15.433Z,167.46
2023-03-29T02:02:15.470Z,171.49
2023-03-29T02:03:15.516Z,168.29
2023-03-29T02:04:15.408Z,171.81
2023-03-29T02:05:15.413Z,173.16
2023-03-29T02:06:15.441Z,169.92
2023-03-29T02:07:15.439Z,171.25
2023-03-29T02:08:15.489Z,175.96
2023-03-29T02:09:15.486Z,174.39
2023-03-29T02:10:15.462Z,170.32
2023-03-29T02:11:15.577Z,173.68
2023-03-29T02:12:15.690Z,165.12
2023-03-29T02:13:15.675Z,164.84
2023-03-29T02:14:15.729Z,171.21
2023-03-29T02:15:15.698Z,164.46
2023-03-29T02:16:15.769Z,170.71
2023-03-29T02:17:15.743Z,173.00
2023-03-29T02:18:15.776Z,166.91
2023-03-29T02:19:15.768Z,167.91
2023-03-29T02:20:15.797Z,165.85
2023-03-29T02:21:15.807Z,171.59
2023-03-29T02:22:15.808Z,166.04
2023-03-29T02:23:15.857Z,166.20
2023-03-29T02:24:15.862Z,167.33
2023-03-29T02:25:15.852Z,161.62
2023-03-29T02:26:15.882Z,162.99
2023-03-29T02:27:15.912Z,170.31
2023-03-29T02:28:16.002Z,163.45
2023-03-29T02:29:16.014Z,169.37
2023-03-29T02:30:16.052Z,167.59
2023-03-29T02:31:16.081Z,165.66
2023-03-29T02:32:16.080Z,168.43
2023-03-29T02:33:16.072Z,172.03
2023-03-29T02:34:16.148Z,171.26
2023-03-29T02:35:16.168Z,170.22
2023-03-29T02:36:16.200Z,156.09
2023-03-29T02:37:16.193Z,162.88
2023-03-29T02:38:16.207Z,167.49
2023-03-29T02:39:16.269Z,167.12
2023-03-29T02:40:16.349Z,163.45
2023-03-29T02:41:16.304Z,173.77
2023-03-29T02:42:16.310Z,166.76
2023-03-29T02:43:16.321Z,160.16
2023-03-29T02:44:16.342Z,161.24
2023-03-29T02:45:16.374Z,162.44
2023-03-29T02:46:16.403Z,165.37
2023-03-29T02:47:16.397Z,166.30
2023-03-29T02:48:16.414Z,170.67
2023-03-29T02:49:16.451Z,177.26
2023-03-29T02:50:16.489Z,174.99
2023-03-29T02:51:18.616Z,168.36
2023-03-29T02:52:16.472Z,167.65
2023-03-29T02:53:16.462Z,164.92
2023-03-29T02:54:16.459Z,167.98
2023-03-29T02:55:16.439Z,172.50
2023-03-29T02:56:16.445Z,172.29
2023-03-29T02:57:16.521Z,176.19
2023-03-29T02:58:16.443Z,171.63
2023-03-29T02:59:16.437Z,174.10
2023-03-29T03:00:16.411Z,178.28
2023-03-29T03:01:16.405Z,176.28
2023-03-29T03:02:16.479Z,170.78
2023-03-29T03:03:16.530Z,174.67
2023-03-29T03:04:16.436Z,176.87
2023-03-29T03:05:16.389Z,176.01
2023-03-29T03:06:16.386Z,168.86
2023-03-29T03:07:16.375Z,174.83
2023-03-29T03:08:16.400Z,177.70
2023-03-29T03:09:16.362Z,179.18
2023-03-29T03:10:16.357Z,175.27
2023-03-29T03:11:16.339Z,176.78
2023-03-29T03:12:16.354Z,174.54
2023-03-29T03:13:16.333Z,177.62
2023-03-29T03:14:16.362Z,177.77
2023-03-29T03:15:16.327Z,174.81
2023-03-29T03:16:16.318Z,179.99
2023-03-29T03:17:16.305Z,183.54
2023-03-29T03:18:16.327Z,183.51
2023-03-29T03:19:16.333Z,185.04
2023-03-29T03:20:16.272Z,186.96
2023-03-29T03:21:16.281Z,180.93
2023-03-29T03:22:16.273Z,180.07
2023-03-29T03:23:16.283Z,184.65
2023-03-29T03:24:16.253Z,183.00
2023-03-29T03:25:16.242Z,182.99
2023-03-29T03:26:16.265Z,179.98
2023-03-29T03:27:16.243Z,180.78
2023-03-29T03:28:16.228Z,183.22
2023-03-29T03:29:16.213Z,180.79
2023-03-29T03:30:16.210Z,182.46
2023-03-29T03:31:16.233Z,181.95
2023-03-29T03:32:16.196Z,187.24
2023-03-29T03:33:16.239Z,184.91
2023-03-29T03:34:16.194Z,189.41
2023-03-29T03:35:16.190Z,184.33
2023-03-29T03:36:16.197Z,178.38
2023-03-29T03:37:16.208Z,183.14
2023-03-29T03:38:16.166Z,176.94
2023-03-29T03:39:16.181Z,179.32
2023-03-29T03:40:16.136Z,177.51
2023-03-29T03:41:16.128Z,182.04
2023-03-29T03:42:16.131Z,180.27
2023-03-29T03:43:16.143Z,181.06
2023-03-29T03:44:16.135Z,182.65
2023-03-29T03:45:16.122Z,178.00
2023-03-29T03:46:16.162Z,182.84
2023-03-29T03:47:16.102Z,185.96
2023-03-29T03:48:16.075Z,177.81
2023-03-29T03:49:16.096Z,177.87
2023-03-29T03:50:16.109Z,178.79
2023-03-29T03:51:16.067Z,181.10
2023-03-29T03:52:16.058Z,184.78
2023-03-29T03:53:16.064Z,180.08
2023-03-29T03:54:16.042Z,182.02
2023-03-29T03:55:16.053Z,179.73
2023-03-29T03:56:16.038Z,180.83
2023-03-29T03:57:16.096Z,179.84
2023-03-29T03:58:16.016Z,185.01
2023-03-29T03:59:16.025Z,184.81
2023-03-29T04:00:16.024Z,186.67
2023-03-29T04:01:16.001Z,182.41
2023-03-29T04:02:16.013Z,181.84
2023-03-29T04:03:16.082Z,183.98
2023-03-29T04:04:16.008Z,187.92
2023-03-29T04:05:15.986Z,184.21
2023-03-29T04:06:15.976Z,176.00
2023-03-29T04:07:15.974Z,176.57
2023-03-29T04:08:15.965Z,184.19
2023-03-29T04:09:15.948Z,187.43
2023-03-29T04:10:15.990Z,187.68
2023-03-29T04:11:15.956Z,184.19
2023-03-29T04:12:15.924Z,184.52
2023-03-29T04:13:15.918Z,186.74
2023-03-29T04:14:15.927Z,181.07
2023-03-29T04:15:15.916Z,177.30
2023-03-29T04:16:15.947Z,181.05
2023-03-29T04:17:15.895Z,185.79
2023-03-29T04:18:16.141Z,183.48
2023-03-29T04:19:15.891Z,185.60
2023-03-29T04:20:15.876Z,181.13
2023-03-29T04:21:15.880Z,182.42
2023-03-29T04:22:15.875Z,181.88
2023-03-29T04:23:15.863Z,181.73
2023-03-29T04:24:15.855Z,178.59
2023-03-29T04:25:15.850Z,182.63
2023-03-29T04:26:15.881Z,178.56
2023-03-29T04:27:15.835Z,181.73
2023-03-29T04:28:15.921Z,184.28
2023-03-29T04:29:15.934Z,177.71
2023-03-29T04:30:15.960Z,179.34
2023-03-29T04:31:15.937Z,185.73
2023-03-29T04:32:15.942Z,182.07
2023-03-29T04:33:15.959Z,185.30
2023-03-29T04:34:15.996Z,182.02
2023-03-29T04:35:16.006Z,185.77
2023-03-29T04:36:16.134Z,184.30
2023-03-29T04:37:16.020Z,186.70
2023-03-29T04:38:16.031Z,185.58
2023-03-29T04:39:16.043Z,189.02
2023-03-29T04:40:16.047Z,185.39
2023-03-29T04:41:16.064Z,185.68
2023-03-29T04:42:16.074Z,183.54
2023-03-29T04:43:16.105Z,184.41
2023-03-29T04:44:16.187Z,179.94
2023-03-29T04:45:16.198Z,182.79
2023-03-29T04:46:16.220Z,181.07
2023-03-29T04:47:16.215Z,181.28
2023-03-29T04:48:16.237Z,179.24
2023-03-29T04:49:16.329Z,181.54
2023-03-29T04:50:16.349Z,181.71
2023-03-29T04:51:16.354Z,178.42
2023-03-29T04:52:16.361Z,180.07
2023-03-29T04:53:16.414Z,180.68
2023-03-29T04:54:16.397Z,182.35
2023-03-29T04:55:16.489Z,179.99
2023-03-29T04:56:16.498Z,184.54
2023-03-29T04:57:16.539Z,185.35
2023-03-29T04:58:16.522Z,184.86
2023-03-29T04:59:16.543Z,182.24
2023-03-29T05:00:16.544Z,184.74
2023-03-29T05:01:16.739Z,179.20
2023-03-29T05:02:16.667Z,182.08
2023-03-29T05:03:50.644Z,25.00
2023-03-29T05:04:50.532Z,25.00
2023-03-29T05:05:50.501Z,25.00
2023-03-29T05:06:50.485Z,25.00
2023-03-29T05:07:50.483Z,25.00
2023-03-29T05:08:50.511Z,25.00
2023-03-29T05:09:50.468Z,26.65
2023-03-29T05:10:50.446Z,23.17
2023-03-29T05:11:50.457Z,26.88
2023-03-29T05:12:50.439Z,28.40
2023-03-29T05:13:50.467Z,31.48
2023-03-29T05:14:50.468Z,27.70
2023-03-29T05:15:50.447Z,25.00
2023-03-29T05:16:50.422Z,32.61
2023-03-29T05:17:50.451Z,27.99
2023-03-29T05:18:50.427Z,36.09
2023-03-29T05:19:50.445Z,28.72
2023-03-29T05:20:50.452Z,29.41
2023-03-29T05:21:50.489Z,37.98
2023-03-29T05:22:50.374Z,32.61
2023-03-29T05:23:50.388Z,33.13
2023-03-29T05:24:50.438Z,37.06
2023-03-29T05:25:50.392Z,30.45
2023-03-29T05:26:50.350Z,31.33
2023-03-29T05:27:50.362Z,32.05
2023-03-29T05:28:50.379Z,29.20
2023-03-29T05:29:50.361Z,16.77
2023-03-29T05:30:50.350Z,30.07
2023-03-29T05:31:50.408Z,25.00
2023-03-29T05:32:50.363Z,52.11
2023-03-29T05:33:50.327Z,50.16
2023-03-29T05:34:50.322Z,53.14
2023-03-29T05:35:50.323Z,44.34
2023-03-29T05:36:50.318Z,69.22
2023-03-29T05:37:50.341Z,75.14
2023-03-29T05:38:50.332Z,86.44
2023-03-29T05:39:50.255Z,101.40
2023-03-29T05:40:50.253Z,98.69
2023-03-29T05:41:50.257Z,100.90
2023-03-29T05:42:50.281Z,112.52
2023-03-29T05:43:50.245Z,127.25
2023-03-29T05:44:51.567Z,131.30
2023-03-29T05:45:50.437Z,141.73
2023-03-29T05:46:50.452Z,141.44
2023-03-29T05:47:50.516Z,142.52
2023-03-29T05:48:50.537Z,153.73
2023-03-29T05:49:50.594Z,161.67
2023-03-29T05:50:50.685Z,156.64
2023-03-29T05:51:50.696Z,143.32
2023-03-29T05:52:50.771Z,98.84
2023-03-29T05:53:50.813Z,62.43
2023-03-29T05:54:50.879Z,42.37
2023-03-29T05:55:51.024Z,27.26
2023-03-29T05:56:50.994Z,16.99
2023-03-29T05:57:51.008Z,25.75
2023-03-29T05:58:52.946Z,25.00
2023-03-29T05:59:51.056Z,25.58
2023-03-29T06:00:51.051Z,55.32
2023-03-29T06:01:51.022Z,99.43
2023-03-29T06:02:51.144Z,108.82
2023-03-29T06:03:51.185Z,132.36
2023-03-29T06:04:51.067Z,162.09
2023-03-29T06:05:51.014Z,176.58
2023-03-29T06:06:51.001Z,193.15
2023-03-29T06:07:51.048Z,204.75
2023-03-29T06:08:51.005Z,202.43
2023-03-29T06:09:50.974Z,203.43
2023-03-29T06:10:50.966Z,207.48
2023-03-29T06:11:50.974Z,195.50
2023-03-29T06:12:51.001Z,194.70
2023-03-29T06:13:50.942Z,203.94
2023-03-29T06:14:50.944Z,211.92
2023-03-29T06:15:50.954Z,199.03
2023-03-29T06:16:50.967Z,204.56
2023-03-29T06:17:50.988Z,198.97
2023-03-29T06:18:50.905Z,202.32
2023-03-29T06:19:50.886Z,208.84
2023-03-29T06:20:50.907Z,211.59
2023-03-29T06:21:50.892Z,221.18
2023-03-29T06:22:50.867Z,230.12
2023-03-29T06:23:50.861Z,224.84
2023-03-29T06:24:50.860Z,232.06
2023-03-29T06:25:51.024Z,228.04
2023-03-29T06:26:50.857Z,236.44
2023-03-29T06:27:50.855Z,243.09
2023-03-29T06:28:52.273Z,243.08
2023-03-29T06:29:50.844Z,232.18
2023-03-29T06:30:50.861Z,211.96
2023-03-29T06:31:50.876Z,200.73
2023-03-29T06:32:50.852Z,218.60
2023-03-29T06:33:50.813Z,205.04
2023-03-29T06:34:50.865Z,221.48
2023-03-29T06:35:50.851Z,228.42
2023-03-29T06:36:50.818Z,227.04
2023-03-29T06:37:50.764Z,250.00
2023-03-29T06:38:50.771Z,258.21
2023-03-29T06:39:52.832Z,241.33
2023-03-29T06:40:50.892Z,232.18
2023-03-29T06:41:50.948Z,231.56
2023-03-29T06:42:50.953Z,235.32
2023-03-29T06:43:50.984Z,236.71
2023-03-29T06:44:50.994Z,243.36
2023-03-29T06:45:51.023Z,249.44
2023-03-29T06:46:52.135Z,250.00
2023-03-29T06:47:51.574Z,247.10
2023-03-29T06:48:51.091Z,244.76
2023-03-29T06:49:51.108Z,247.36
2023-03-29T06:50:51.137Z,248.37
2023-03-29T06:51:51.175Z,244.05
2023-03-29T06:52:51.563Z,234.68
2023-03-29T06:53:51.205Z,242.02
2023-03-29T06:54:51.581Z,246.30
2023-03-29T06:55:51.204Z,250.32
2023-03-29T06:56:51.273Z,250.00
2023-03-29T06:57:51.558Z,250.00
2023-03-29T06:58:51.252Z,248.95
2023-03-29T06:59:51.297Z,244.60
2023-03-29T07:00:51.280Z,242.67
2023-03-29T07:01:51.342Z,242.59
2023-03-29T07:02:51.569Z,244.06
2023-03-29T07:03:51.364Z,243.37
2023-03-29T07:04:51.431Z,239.67
2023-03-29T07:05:51.366Z,238.29
2023-03-29T07:06:51.415Z,234.46
2023-03-29T07:07:51.588Z,235.95
2023-03-29T07:08:51.480Z,232.55
2023-03-29T07:09:51.458Z,231.89
2023-03-29T07:10:51.481Z,220.42
2023-03-29T07:11:51.528Z,212.97
2023-03-29T07:12:51.525Z,214.12
2023-03-29T07:13:51.534Z,210.97
2023-03-29T07:14:51.609Z,203.78
2023-03-29T07:15:51.627Z,204.84
2023-03-29T07:16:51.642Z,211.01
2023-03-29T07:17:51.649Z,208.90
2023-03-29T07:18:51.627Z,209.92
2023-03-29T07:19:51.659Z,206.89
2023-03-29T07:20:51.674Z,207.31
2023-03-29T07:21:52.070Z,205.83
2023-03-29T07:22:51.712Z,203.65
2023-03-29T07:23:51.708Z,201.56
2023-03-29T07:24:51.702Z,183.86
2023-03-29T07:25:51.729Z,180.58
2023-03-29T07:27:03.222Z,187.49
2023-03-29T07:27:53.065Z,187.88
2023-03-29T07:28:51.737Z,188.34
2023-03-29T07:29:51.741Z,188.36
2023-03-29T07:30:51.724Z,189.24
2023-03-29T07:31:51.708Z,195.74
2023-03-29T07:32:52.085Z,199.91
2023-03-29T07:33:51.743Z,199.68
2023-03-29T07:34:51.695Z,204.49
2023-03-29T07:35:51.727Z,201.04
2023-03-29T07:36:51.706Z,204.84
2023-03-29T07:37:52.072Z,204.53
2023-03-29T07:38:52.932Z,208.20
2023-03-29T07:39:51.696Z,211.22
2023-03-29T07:40:51.651Z,211.28
2023-03-29T07:41:51.668Z,211.32
2023-03-29T07:42:51.671Z,214.21
2023-03-29T07:43:51.660Z,212.66
2023-03-29T07:44:52.085Z,213.10
2023-03-29T07:45:51.686Z,208.71
2023-03-29T07:46:51.621Z,202.56
2023-03-29T07:47:51.689Z,201.55
2023-03-29T07:48:51.621Z,192.74
2023-03-29T07:49:52.072Z,189.38
2023-03-29T07:50:51.601Z,196.46
2023-03-29T07:51:51.586Z,199.26
2023-03-29T07:52:52.095Z,201.05
2023-03-29T07:53:51.568Z,221.18
2023-03-29T07:54:52.061Z,242.54
2023-03-29T07:55:51.550Z,245.23
2023-03-29T07:56:51.574Z,244.61
2023-03-29T07:57:51.574Z,239.43
2023-03-29T07:58:51.546Z,226.53
2023-03-29T07:59:51.559Z,221.75
2023-03-29T08:00:51.560Z,218.54
2023-03-29T08:01:51.526Z,218.28
2023-03-29T08:02:51.539Z,216.80
2023-03-29T08:03:51.574Z,205.82
2023-03-29T08:04:51.502Z,199.75
2023-03-29T08:05:51.489Z,192.96
2023-03-29T08:06:51.509Z,178.12
2023-03-29T08:07:51.461Z,167.55
2023-03-29T08:08:51.516Z,156.99
2023-03-29T08:09:51.457Z,162.54
2023-03-29T08:10:51.462Z,163.30
2023-03-29T08:11:51.455Z,172.23
2023-03-29T08:12:51.428Z,160.87
2023-03-29T08:13:51.427Z,155.07
2023-03-29T08:14:51.574Z,166.93
2023-03-29T08:15:51.417Z,172.70
2023-03-29T08:16:51.433Z,173.97
2023-03-29T08:17:51.445Z,170.65
2023-03-29T08:18:51.395Z,168.11
2023-03-29T08:19:51.818Z,156.15
2023-03-29T08:20:51.375Z,149.09
2023-03-29T08:21:51.345Z,129.55
2023-03-29T08:22:51.354Z,127.53
2023-03-29T08:23:51.364Z,148.37
2023-03-29T08:24:51.599Z,150.19
2023-03-29T08:25:51.337Z,157.77
2023-03-29T08:26:51.396Z,158.09
2023-03-29T08:27:51.607Z,163.07
2023-03-29T08:28:51.344Z,167.05
2023-03-29T08:29:51.311Z,169.95
2023-03-29T08:30:51.294Z,171.17
2023-03-29T08:31:51.295Z,166.73
2023-03-29T08:32:54.450Z,169.90
2023-03-29T08:33:51.283Z,154.66
2023-03-29T08:34:51.257Z,164.99
2023-03-29T08:35:51.334Z,170.09
2023-03-29T08:36:52.100Z,170.27
2023-03-29T08:37:51.644Z,162.22
2023-03-29T08:38:51.231Z,163.09
2023-03-29T08:39:51.226Z,165.84
2023-03-29T08:40:51.212Z,166.87
2023-03-29T08:41:51.236Z,164.53
2023-03-29T08:42:52.107Z,167.21
2023-03-29T08:43:51.216Z,167.43
2023-03-29T08:44:51.192Z,168.29
2023-03-29T08:45:51.349Z,171.87
2023-03-29T08:46:51.244Z,169.76
2023-03-29T08:47:51.238Z,171.55
2023-03-29T08:48:51.137Z,171.43
2023-03-29T08:49:51.145Z,174.21
2023-03-29T08:50:51.135Z,174.09
2023-03-29T08:51:51.154Z,175.70
2023-03-29T08:52:51.171Z,171.96
2023-03-29T08:53:51.112Z,172.68
2023-03-29T08:54:51.098Z,173.81
2023-03-29T08:55:51.102Z,176.60
2023-03-29T08:56:51.223Z,174.93
2023-03-29T08:57:51.100Z,176.95
2023-03-29T08:58:51.613Z,173.94
2023-03-29T08:59:51.069Z,175.45
2023-03-29T09:00:51.076Z,175.57
2023-03-29T09:01:51.061Z,175.51
2023-03-29T09:02:51.143Z,173.95
2023-03-29T09:03:51.175Z,174.65
2023-03-29T09:04:51.067Z,173.46
2023-03-29T09:05:51.023Z,174.58
2023-03-29T09:06:51.022Z,175.38
2023-03-29T09:07:51.029Z,174.48
2023-03-29T09:08:51.108Z,171.71
2023-03-29T09:09:51.001Z,174.10
2023-03-29T09:10:51.000Z,171.81
2023-03-29T09:11:50.984Z,168.67
2023-03-29T09:12:51.041Z,168.01
2023-03-29T09:13:51.002Z,169.76
2023-03-29T09:14:50.951Z,171.58
2023-03-29T09:15:51.004Z,169.91
2023-03-29T09:16:50.976Z,170.15
2023-03-29T09:17:51.165Z,172.24
2023-03-29T09:18:50.965Z,170.83
2023-03-29T09:19:50.927Z,172.65
2023-03-29T09:20:50.949Z,169.56
2023-03-29T09:21:50.920Z,173.88
2023-03-29T09:22:51.620Z,171.07
2023-03-29T09:23:51.022Z,172.33
2023-03-29T09:24:50.968Z,171.93
2023-03-29T09:25:53.446Z,172.36
2023-03-29T09:26:50.872Z,153.89
2023-03-29T09:27:51.182Z,142.70
2023-03-29T09:28:50.920Z,117.76
2023-03-29T09:29:50.914Z,116.47
2023-03-29T09:30:50.879Z,121.79
2023-03-29T09:31:50.931Z,110.57
2023-03-29T09:32:51.132Z,105.07
2023-03-29T09:33:51.135Z,87.40
2023-03-29T09:34:50.867Z,81.45
2023-03-29T09:35:50.869Z,97.78
2023-03-29T09:36:50.871Z,97.39
2023-03-29T09:37:50.803Z,114.28
2023-03-29T09:38:50.791Z,131.79
2023-03-29T09:39:50.800Z,129.51
2023-03-29T09:40:50.767Z,125.30
2023-03-29T09:41:50.768Z,129.22
2023-03-29T09:42:50.785Z,134.22
2023-03-29T09:43:50.764Z,136.93
2023-03-29T09:44:50.742Z,140.33
2023-03-29T09:45:50.800Z,143.27
2023-03-29T09:46:50.747Z,147.92
2023-03-29T09:47:50.788Z,147.63
2023-03-29T09:48:51.152Z,148.87
2023-03-29T09:49:50.717Z,148.28
2023-03-29T09:50:50.762Z,148.86
2023-03-29T09:51:50.715Z,149.94
2023-03-29T09:52:50.727Z,149.45
2023-03-29T09:53:51.115Z,153.29
2023-03-29T09:54:50.713Z,146.80
2023-03-29T09:55:50.748Z,149.74
2023-03-29T09:56:50.792Z,149.02
2023-03-29T09:57:50.701Z,147.78
2023-03-29T09:58:50.680Z,146.94
2023-03-29T09:59:50.668Z,148.96
2023-03-29T10:00:50.752Z,144.59
2023-03-29T10:01:50.679Z,144.75
2023-03-29T10:02:50.737Z,146.84
2023-03-29T10:03:51.174Z,149.81
2023-03-29T10:04:51.113Z,146.41
2023-03-29T10:05:50.633Z,143.15
2023-03-29T10:06:50.674Z,139.05
2023-03-29T10:07:50.623Z,138.60
2023-03-29T10:08:50.606Z,137.19
2023-03-29T10:09:50.630Z,139.52
2023-03-29T10:10:50.613Z,140.10
2023-03-29T10:11:50.628Z,131.83
2023-03-29T10:12:50.563Z,123.95
2023-03-29T10:13:50.626Z,106.64
2023-03-29T10:14:53.500Z,92.34
2023-03-29T10:15:50.540Z,96.89
2023-03-29T10:16:50.616Z,106.92
2023-03-29T10:17:50.558Z,93.47
2023-03-29T10:18:50.512Z,97.61
2023-03-29T10:19:50.651Z,59.85
2023-03-29T10:20:50.549Z,56.59
2023-03-29T10:21:50.477Z,40.21
2023-03-29T10:22:50.576Z,76.60
2023-03-29T10:23:50.544Z,104.12
2023-03-29T10:24:50.640Z,116.42
2023-03-29T10:25:50.456Z,124.13
2023-03-29T10:26:50.472Z,128.85
2023-03-29T10:27:50.458Z,130.13
2023-03-29T10:28:50.436Z,133.67
2023-03-29T10:29:50.452Z,143.41
2023-03-29T10:30:50.425Z,148.40
2023-03-29T10:31:50.510Z,153.26
2023-03-29T10:32:50.490Z,156.03
2023-03-29T10:33:50.404Z,154.20
2023-03-29T10:34:50.394Z,157.85
2023-03-29T10:35:50.448Z,158.59
2023-03-29T10:36:50.415Z,162.35
2023-03-29T10:37:50.388Z,153.30
2023-03-29T10:38:50.357Z,155.29
2023-03-29T10:39:50.377Z,150.03
2023-03-29T10:40:50.352Z,139.75
2023-03-29T10:41:50.385Z,146.82
2023-03-29T10:42:50.345Z,146.07
2023-03-29T10:43:50.345Z,150.97
2023-03-29T10:44:50.372Z,148.57
2023-03-29T10:45:50.376Z,147.99
2023-03-29T10:46:50.326Z,154.32
2023-03-29T10:47:50.369Z,144.70
2023-03-29T10:48:50.322Z,129.77
2023-03-29T10:49:51.067Z,112.43
2023-03-29T10:50:50.293Z,100.33
2023-03-29T10:51:50.312Z,104.19
2023-03-29T10:52:50.327Z,87.33
2023-03-29T10:53:50.273Z,95.01
2023-03-29T10:54:50.293Z,85.93
2023-03-29T10:55:50.259Z,65.43
2023-03-29T10:56:52.343Z,66.63
2023-03-29T10:57:50.296Z,86.20
2023-03-29T10:58:50.238Z,90.53
2023-03-29T10:59:50.691Z,104.58
2023-03-29T11:00:50.226Z,90.82
2023-03-29T11:01:50.275Z,83.81
2023-03-29T11:02:50.347Z,99.63
2023-03-29T11:03:50.273Z,101.75
2023-03-29T11:04:50.680Z,98.34
2023-03-29T11:05:50.211Z,103.83
2023-03-29T11:06:50.167Z,110.29
2023-03-29T11:07:50.234Z,110.92
2023-03-29T11:08:50.150Z,124.88
2023-03-29T11:09:50.159Z,127.53
2023-03-29T11:10:50.176Z,126.54
2023-03-29T11:11:51.583Z,132.50
2023-03-29T11:12:51.198Z,132.75
2023-03-29T11:13:50.185Z,130.86
2023-03-29T11:14:50.712Z,123.54
2023-03-29T11:15:50.740Z,114.41
2023-03-29T11:16:50.178Z,117.05
2023-03-29T11:17:50.194Z,121.22
2023-03-29T11:18:50.181Z,117.68
2023-03-29T11:19:50.144Z,109.32
2023-03-29T11:20:50.152Z,114.92
2023-03-29T11:21:50.193Z,111.78
2023-03-29T11:22:50.221Z,99.93
2023-03-29T11:23:50.278Z,102.41
2023-03-29T11:24:50.375Z,106.91
2023-03-29T11:25:50.498Z,103.64
2023-03-29T11:26:50.447Z,99.49
2023-03-29T11:27:50.502Z,97.06
2023-03-29T11:28:50.566Z,93.54
2023-03-29T11:29:50.641Z,90.95
2023-03-29T11:30:50.754Z,93.48
2023-03-29T11:31:50.811Z,92.47
2023-03-29T11:32:50.864Z,95.17
2023-03-29T11:33:50.836Z,86.45
2023-03-29T11:34:50.892Z,82.57
2023-03-29T11:35:51.027Z,93.11
2023-03-29T11:36:51.048Z,84.59
2023-03-29T11:37:51.215Z,80.42
2023-03-29T11:38:51.124Z,80.11
2023-03-29T11:39:51.191Z,80.10
2023-03-29T11:40:51.247Z,77.12
2023-03-29T11:41:51.315Z,75.26
2023-03-29T11:42:51.377Z,75.66
2023-03-29T11:43:51.454Z,74.27
2023-03-29T11:44:53.414Z,72.36
2023-03-29T11:45:51.500Z,71.17
2023-03-29T11:46:51.521Z,71.35
2023-03-29T11:47:51.491Z,78.66
2023-03-29T11:48:51.466Z,78.65
2023-03-29T11:49:51.471Z,71.96
2023-03-29T11:50:51.455Z,73.02
2023-03-29T11:51:51.442Z,71.48
2023-03-29T11:52:51.436Z,70.69
2023-03-29T11:53:51.416Z,65.04
2023-03-29T11:54:51.421Z,69.76
2023-03-29T11:55:51.684Z,68.63
2023-03-29T11:56:51.488Z,67.25
2023-03-29T11:57:51.676Z,69.38
2023-03-29T11:58:51.397Z,66.36
2023-03-29T11:59:51.393Z,61.36
2023-03-29T12:00:51.361Z,61.50
2023-03-29T12:01:51.386Z,63.15
2023-03-29T12:02:51.695Z,56.50
2023-03-29T12:03:51.444Z,58.10
2023-03-29T12:04:51.366Z,64.50
2023-03-29T12:05:51.354Z,57.47
2023-03-29T12:06:51.355Z,56.80
2023-03-29T12:07:51.325Z,58.54
2023-03-29T12:08:51.316Z,53.96
2023-03-29T12:09:51.316Z,50.95
2023-03-29T12:10:51.322Z,53.20
2023-03-29T12:11:51.309Z,52.48
2023-03-29T12:12:51.662Z,54.07
2023-03-29T12:13:51.273Z,47.88
2023-03-29T12:14:51.257Z,51.69
2023-03-29T12:15:51.271Z,47.09
2023-03-29T12:16:51.296Z,50.07
2023-03-29T12:17:51.302Z,48.43
2023-03-29T12:18:51.224Z,49.09
2023-03-29T12:19:51.239Z,49.29
2023-03-29T12:20:51.244Z,51.67
2023-03-29T12:21:51.273Z,44.64
2023-03-29T12:22:51.332Z,49.15
2023-03-29T12:23:51.361Z,46.58
2023-03-29T12:24:51.414Z,45.51
2023-03-29T12:25:51.485Z,42.43
2023-03-29T12:26:51.541Z,42.74
2023-03-29T12:27:51.603Z,38.77
2023-03-29T12:28:51.671Z,46.88
2023-03-29T12:29:51.697Z,49.55
2023-03-29T12:30:51.751Z,48.87
2023-03-29T12:31:51.850Z,44.16
2023-03-29T12:32:51.948Z,43.50